createdAt,value
2022-11-05T00:00:16.613Z,11.38
2022-11-05T00:03:37.221Z,12.05
2022-11-05T00:06:32.690Z,11.40
2022-11-05T00:09:18.657Z,10.88
2022-11-05T00:12:05.976Z,11.85
2022-11-05T00:14:51.899Z,12.07
2022-11-05T00:17:20.478Z,10.10
2022-11-05T00:19:48.727Z,11.35
2022-11-05T00:22:34.520Z,10.45
2022-11-05T00:25:18.072Z,11.20
2022-11-05T00:27:49.926Z,11.48
2022-11-05T00:30:20.194Z,11.32
2022-11-05T00:32:50.069Z,10.45
2022-11-05T00:35:20.491Z,9.88
2022-11-05T00:37:50.471Z,9.98
2022-11-05T00:40:19.191Z,10.75
2022-11-05T00:43:06.806Z,11.15
2022-11-05T00:45:35.113Z,11.20
2022-11-05T00:48:21.398Z,11.85
2022-11-05T00:50:49.704Z,10.43
2022-11-05T00:53:18.367Z,11.30
2022-11-05T00:55:47.963Z,10.98
2022-11-05T00:58:19.130Z,11.15
2022-11-05T01:00:51.500Z,9.45
2022-11-05T01:03:22.484Z,10.18
2022-11-05T01:05:53.885Z,10.10
2022-11-05T01:08:24.696Z,9.73
2022-11-05T01:10:54.989Z,9.68
2022-11-05T01:13:27.759Z,10.43
2022-11-05T01:15:57.350Z,10.43
2022-11-05T01:18:26.501Z,9.65
2022-11-05T01:20:54.803Z,9.63
2022-11-05T01:23:23.340Z,10.63
2022-11-05T01:25:51.846Z,11.35
2022-11-05T01:28:20.412Z,10.90
2022-11-05T01:30:56.685Z,11.60
2022-11-05T01:33:25.375Z,11.02
2022-11-05T01:35:53.666Z,9.00
2022-11-05T01:38:22.238Z,8.73
2022-11-05T01:40:50.515Z,9.93
2022-11-05T01:43:20.427Z,9.43
2022-11-05T01:45:52.598Z,10.68
2022-11-05T01:48:24.894Z,10.30
2022-11-05T01:50:58.000Z,10.10
2022-11-05T01:53:31.582Z,8.68
2022-11-05T01:56:04.296Z,8.73
2022-11-05T01:58:38.445Z,9.30
2022-11-05T02:01:08.089Z,7.07
2022-11-05T02:03:36.895Z,8.95
2022-11-05T02:06:09.293Z,9.43
2022-11-05T02:08:48.294Z,9.40
2022-11-05T02:11:19.594Z,9.50
2022-11-05T02:13:49.239Z,8.40
2022-11-05T02:16:29.810Z,9.52
2022-11-05T02:19:02.807Z,9.00
2022-11-05T02:22:12.740Z,9.57
2022-11-05T02:25:14.941Z,8.95
2022-11-05T02:28:18.314Z,8.48
2022-11-05T02:30:54.068Z,8.90
2022-11-05T02:33:42.261Z,7.93
2022-11-05T02:36:22.507Z,8.73
2022-11-05T02:39:02.331Z,8.90
2022-11-05T02:41:36.903Z,7.85
2022-11-05T02:44:16.034Z,8.75
2022-11-05T02:46:54.788Z,9.02
2022-11-05T02:49:33.645Z,8.50
2022-11-05T02:52:07.721Z,8.98
2022-11-05T02:54:40.830Z,7.93
2022-11-05T02:57:09.630Z,9.52
2022-11-05T02:59:37.965Z,9.18
2022-11-05T03:02:08.153Z,9.20
2022-11-05T03:04:36.701Z,9.10
2022-11-05T03:07:23.473Z,8.85
2022-11-05T03:10:23.606Z,10.98
2022-11-05T03:13:02.405Z,9.40
2022-11-05T03:15:46.448Z,8.40
2022-11-05T03:18:22.491Z,9.05
2022-11-05T03:20:55.781Z,8.18
2022-11-05T03:23:29.317Z,9.02
2022-11-05T03:26:13.114Z,8.82
2022-11-05T03:28:44.314Z,8.30
2022-11-05T03:31:14.470Z,8.75
2022-11-05T03:33:46.063Z,8.88
2022-11-05T03:36:18.049Z,9.13
2022-11-05T03:38:50.730Z,8.15
2022-11-05T03:41:20.382Z,8.15
2022-11-05T03:43:52.901Z,7.70
2022-11-05T03:46:25.849Z,9.57
2022-11-05T03:48:58.350Z,8.43
2022-11-05T03:51:36.945Z,8.27
2022-11-05T03:54:06.701Z,9.70
2022-11-05T03:56:40.037Z,9.20
2022-11-05T03:59:10.847Z,8.18
2022-11-05T04:01:39.913Z,8.95
2022-11-05T04:04:10.803Z,9.18
2022-11-05T04:06:56.195Z,9.43
2022-11-05T04:09:42.735Z,9.65
2022-11-05T04:12:29.315Z,9.88
2022-11-05T04:14:57.993Z,10.18
2022-11-05T04:17:25.561Z,8.70
2022-11-05T04:20:12.908Z,10.23
2022-11-05T04:22:58.717Z,10.50
2022-11-05T04:25:27.614Z,9.27
2022-11-05T04:28:00.384Z,9.48
2022-11-05T04:30:28.264Z,9.50
2022-11-05T04:33:05.429Z,10.00
2022-11-05T04:35:38.095Z,8.70
2022-11-05T04:38:07.623Z,9.05
2022-11-05T04:40:36.425Z,9.63
2022-11-05T04:43:06.543Z,9.43
2022-11-05T04:45:38.279Z,9.05
2022-11-05T04:48:07.131Z,9.90
2022-11-05T04:50:37.136Z,9.10
2022-11-05T04:53:05.506Z,9.88
2022-11-05T04:55:34.106Z,10.27
2022-11-05T04:58:02.382Z,9.88
2022-11-05T05:00:30.998Z,9.32
2022-11-05T05:02:59.210Z,9.98
2022-11-05T05:05:27.726Z,10.23
2022-11-05T05:08:01.752Z,10.35
2022-11-05T05:10:30.194Z,9.00
2022-11-05T05:12:58.437Z,9.13
2022-11-05T05:15:26.974Z,9.32
2022-11-05T05:17:55.182Z,9.70
2022-11-05T05:20:41.150Z,8.75
2022-11-05T05:23:12.226Z,9.65
2022-11-05T05:25:41.000Z,8.77
2022-11-05T05:28:09.172Z,9.00
2022-11-05T05:30:37.813Z,9.80
2022-11-05T05:33:06.171Z,9.60
2022-11-05T05:35:34.782Z,7.45
2022-11-05T05:38:03.071Z,8.70
2022-11-05T05:40:32.973Z,9.50
2022-11-05T05:43:01.202Z,10.45
2022-11-05T05:45:29.763Z,9.65
2022-11-05T05:47:58.086Z,9.10
2022-11-05T05:50:26.569Z,8.93
2022-11-05T05:52:55.050Z,8.63
2022-11-05T05:55:23.643Z,7.88
2022-11-05T05:57:53.258Z,9.52
2022-11-05T06:00:21.972Z,8.70
2022-11-05T06:02:50.278Z,9.00
2022-11-05T06:05:18.893Z,8.27
2022-11-05T06:07:47.122Z,8.07
2022-11-05T06:10:15.741Z,9.30
2022-11-05T06:12:44.025Z,8.35
2022-11-05T06:15:13.971Z,8.40
2022-11-05T06:17:44.339Z,8.38
2022-11-05T06:20:13.839Z,8.00
2022-11-05T06:22:42.271Z,8.52
2022-11-05T06:25:11.403Z,7.85
2022-11-05T06:27:39.589Z,9.13
2022-11-05T06:30:09.543Z,7.85
2022-11-05T06:32:39.164Z,7.45
2022-11-05T06:35:08.107Z,8.23
2022-11-05T06:37:36.311Z,9.13
2022-11-05T06:40:05.474Z,8.68
2022-11-05T06:42:33.811Z,7.95
2022-11-05T06:45:02.552Z,8.82
2022-11-05T06:47:31.376Z,9.07
2022-11-05T06:50:01.383Z,8.40
2022-11-05T06:52:31.310Z,8.20
2022-11-05T06:54:59.850Z,8.35
2022-11-05T06:57:28.069Z,9.02
2022-11-05T07:00:01.362Z,8.05
2022-11-05T07:02:31.583Z,8.45
2022-11-05T07:05:01.504Z,8.07
2022-11-05T07:07:29.664Z,9.43
2022-11-05T07:09:58.263Z,7.97
2022-11-05T07:12:26.519Z,7.55
2022-11-05T07:14:55.073Z,8.23
2022-11-05T07:17:23.555Z,9.15
2022-11-05T07:19:52.152Z,7.88
2022-11-05T07:22:21.692Z,8.52
2022-11-05T07:24:50.434Z,9.15
2022-11-05T07:27:18.760Z,8.15
2022-11-05T07:29:47.404Z,6.90
2022-11-05T07:32:15.691Z,7.70
2022-11-05T07:34:44.292Z,7.80
2022-11-05T07:37:12.476Z,7.85
2022-11-05T07:39:42.346Z,7.20
2022-11-05T07:42:13.730Z,7.78
2022-11-05T07:44:42.371Z,7.88
2022-11-05T07:47:10.723Z,7.72
2022-11-05T07:49:39.344Z,7.78
2022-11-05T07:52:07.551Z,6.25
2022-11-05T07:54:36.044Z,7.38
2022-11-05T07:57:05.628Z,6.97
2022-11-05T07:59:34.267Z,7.78
2022-11-05T08:02:02.723Z,6.75
2022-11-05T08:04:31.352Z,7.45
2022-11-05T08:06:59.542Z,7.32
2022-11-05T08:09:27.942Z,7.28
2022-11-05T08:12:02.584Z,5.78
2022-11-05T08:14:33.297Z,7.00
2022-11-05T08:17:01.545Z,6.43
2022-11-05T08:19:30.029Z,6.72
2022-11-05T08:21:58.335Z,6.93
2022-11-05T08:24:26.842Z,5.82
2022-11-05T08:26:55.212Z,6.03
2022-11-05T08:29:23.761Z,6.75
2022-11-05T08:31:53.296Z,5.32
2022-11-05T08:34:21.850Z,5.82
2022-11-05T08:36:50.097Z,5.00
2022-11-05T08:39:19.918Z,5.45
2022-11-05T08:41:48.129Z,5.55
2022-11-05T08:44:16.602Z,5.35
2022-11-05T08:46:44.886Z,4.90
2022-11-05T08:49:14.705Z,5.18
2022-11-05T08:51:44.210Z,3.97
2022-11-05T08:54:12.790Z,4.40
2022-11-05T08:56:41.069Z,4.93
2022-11-05T08:59:09.726Z,4.15
2022-11-05T09:01:38.176Z,3.63
2022-11-05T09:04:06.845Z,3.60
2022-11-05T09:06:36.449Z,4.00
2022-11-05T09:09:05.216Z,3.70
2022-11-05T09:12:05.252Z,3.65
2022-11-05T09:14:22.118Z,3.55
2022-11-05T09:16:50.404Z,3.28
2022-11-05T09:19:19.017Z,3.58
2022-11-05T09:21:48.805Z,2.83
2022-11-05T09:24:17.693Z,3.33
2022-11-05T09:26:45.961Z,2.72
2022-11-05T09:29:14.737Z,2.55
2022-11-05T09:31:43.562Z,2.78
2022-11-05T09:34:12.283Z,3.05
2022-11-05T09:36:40.622Z,2.83
2022-11-05T09:39:10.812Z,2.95
2022-11-05T09:41:43.448Z,2.95
2022-11-05T09:44:15.700Z,2.72
2022-11-05T09:46:47.076Z,2.80
2022-11-05T09:49:27.262Z,2.50
2022-11-05T09:51:58.577Z,2.97
2022-11-05T09:54:33.241Z,1.90
2022-11-05T09:57:03.361Z,2.42
2022-11-05T09:59:40.134Z,2.15
2022-11-05T10:02:17.430Z,2.38
2022-11-05T10:04:49.150Z,2.45
2022-11-05T10:07:22.801Z,1.88
2022-11-05T10:09:55.389Z,2.28
2022-11-05T10:12:26.958Z,2.13
2022-11-05T10:15:04.817Z,2.03
2022-11-05T10:17:39.040Z,2.53
2022-11-05T10:20:14.983Z,2.03
2022-11-05T10:22:49.169Z,1.80
2022-11-05T10:25:21.514Z,2.42
2022-11-05T10:27:53.000Z,1.85
2022-11-05T10:30:22.535Z,1.98
2022-11-05T10:32:56.612Z,1.75
2022-11-05T10:35:27.905Z,1.92
2022-11-05T10:37:57.287Z,1.67
2022-11-05T10:40:35.964Z,2.08
2022-11-05T10:43:07.790Z,2.35
2022-11-05T10:45:49.077Z,1.70
2022-11-05T10:48:43.632Z,1.92
2022-11-05T10:51:13.921Z,1.77
2022-11-05T10:53:49.353Z,1.98
2022-11-05T10:56:34.348Z,2.47
2022-11-05T10:59:09.396Z,2.30
2022-11-05T11:01:41.356Z,1.10
2022-11-05T11:04:18.128Z,1.80
2022-11-05T11:06:51.551Z,2.03
2022-11-05T11:09:24.371Z,1.30
2022-11-05T11:12:02.503Z,1.80
2022-11-05T11:14:31.826Z,1.50
2022-11-05T11:17:26.740Z,1.52
2022-11-05T11:20:20.542Z,1.98
2022-11-05T11:23:11.329Z,1.98
2022-11-05T11:25:47.491Z,1.83
2022-11-05T11:28:23.906Z,1.40
2022-11-05T11:30:57.015Z,1.83
2022-11-05T11:33:29.422Z,2.13
2022-11-05T11:35:58.110Z,1.85
2022-11-05T11:38:30.520Z,2.38
2022-11-05T11:41:16.367Z,3.22
2022-11-05T11:43:47.005Z,2.97
2022-11-05T11:46:18.851Z,2.40
2022-11-05T11:48:49.450Z,2.08
2022-11-05T11:51:29.747Z,2.30
2022-11-05T11:54:00.099Z,2.78
2022-11-05T11:56:30.447Z,2.47
2022-11-05T11:59:04.627Z,2.63
2022-11-05T12:02:00.474Z,2.83
2022-11-05T12:04:51.041Z,3.33
2022-11-05T12:07:30.576Z,2.42
2022-11-05T12:10:16.074Z,3.47
2022-11-05T12:12:53.774Z,3.65
2022-11-05T12:15:37.362Z,3.10
2022-11-05T12:18:11.518Z,2.90
2022-11-05T12:21:07.222Z,3.03
2022-11-05T12:23:47.491Z,4.03
2022-11-05T12:26:25.878Z,3.13
2022-11-05T12:29:19.161Z,3.80
2022-11-05T12:32:00.290Z,3.58
2022-11-05T12:34:44.796Z,2.88
2022-11-05T12:37:24.577Z,3.33
2022-11-05T12:40:19.385Z,3.58
2022-11-05T12:43:01.372Z,3.03
2022-11-05T12:45:39.481Z,2.92
2022-11-05T12:48:29.280Z,2.97
2022-11-05T12:51:06.281Z,3.33
2022-11-05T12:53:50.566Z,3.75
2022-11-05T12:56:26.025Z,2.92
2022-11-05T12:59:02.111Z,3.05
2022-11-05T13:01:35.829Z,3.10
2022-11-05T13:04:14.660Z,2.60
2022-11-05T13:06:47.902Z,2.55
2022-11-05T13:09:20.185Z,2.95
2022-11-05T13:11:53.550Z,3.13
2022-11-05T13:14:25.934Z,2.58
2022-11-05T13:16:57.639Z,3.10
2022-11-05T13:19:30.631Z,2.80
2022-11-05T13:22:08.011Z,2.97
2022-11-05T13:24:40.154Z,3.53
2022-11-05T13:27:22.090Z,2.25
2022-11-05T13:29:54.175Z,2.45
2022-11-05T13:32:30.310Z,2.78
2022-11-05T13:35:03.021Z,3.25
2022-11-05T13:37:53.385Z,3.05
2022-11-05T13:40:26.374Z,2.83
2022-11-05T13:43:11.707Z,3.55
2022-11-05T13:46:06.317Z,2.72
2022-11-05T13:49:05.148Z,3.63
2022-11-05T13:51:55.073Z,2.97
2022-11-05T13:55:07.440Z,2.78
2022-11-05T13:58:17.279Z,3.47
2022-11-05T14:00:58.142Z,2.60
2022-11-05T14:03:26.852Z,3.95
2022-11-05T14:06:05.497Z,3.42
2022-11-05T14:08:41.114Z,3.25
2022-11-05T14:11:20.828Z,3.58
2022-11-05T14:13:55.667Z,2.58
2022-11-05T14:16:26.509Z,2.85
2022-11-05T14:19:16.227Z,2.97
2022-11-05T14:21:49.211Z,2.53
2022-11-05T14:24:29.188Z,2.22
2022-11-05T14:27:34.513Z,2.53
2022-11-05T14:30:40.723Z,3.15
2022-11-05T14:33:30.257Z,2.65
2022-11-05T14:36:34.494Z,2.80
2022-11-05T14:39:18.770Z,3.10
2022-11-05T14:42:03.516Z,2.35
2022-11-05T14:44:34.095Z,2.28
2022-11-05T14:47:05.996Z,2.40
2022-11-05T14:49:37.802Z,2.45
2022-11-05T14:52:09.437Z,2.28
2022-11-05T14:54:43.659Z,2.22
2022-11-05T14:57:16.447Z,2.08
2022-11-05T15:00:02.405Z,2.22
2022-11-05T15:02:37.935Z,2.80
2022-11-05T15:05:38.463Z,2.90
2022-11-05T15:08:31.346Z,2.88
2022-11-05T15:11:08.545Z,2.50
2022-11-05T15:13:47.572Z,3.17
2022-11-05T15:16:24.571Z,3.00
2022-11-05T15:18:55.199Z,3.42
2022-11-05T15:21:25.158Z,3.08
2022-11-05T15:23:57.639Z,2.67
2022-11-05T15:26:36.905Z,2.92
2022-11-05T15:29:17.255Z,2.72
2022-11-05T15:31:45.833Z,3.45
2022-11-05T15:34:21.000Z,2.80
2022-11-05T15:36:52.499Z,2.90
2022-11-05T15:39:30.448Z,2.53
2022-11-05T15:41:59.276Z,2.42
2022-11-05T15:44:31.647Z,3.05
2022-11-05T15:47:14.108Z,3.47
2022-11-05T15:49:46.671Z,2.38
2022-11-05T15:52:16.588Z,2.85
2022-11-05T15:54:46.082Z,2.70
2022-11-05T15:57:27.697Z,2.42
2022-11-05T15:59:57.731Z,2.47
2022-11-05T16:02:32.883Z,2.95
2022-11-05T16:05:06.627Z,2.40
2022-11-05T16:07:34.937Z,2.50
2022-11-05T16:10:07.368Z,2.58
2022-11-05T16:12:39.877Z,2.95
2022-11-05T16:15:24.779Z,2.28
2022-11-05T16:17:57.519Z,3.40
2022-11-05T16:20:32.180Z,3.20
2022-11-05T16:23:02.353Z,3.50
2022-11-05T16:25:40.207Z,3.50
2022-11-05T16:28:21.897Z,2.83
2022-11-05T16:30:56.545Z,3.85
2022-11-05T16:33:25.925Z,4.00
2022-11-05T16:35:54.804Z,3.75
2022-11-05T16:38:23.277Z,3.42
2022-11-05T16:40:51.991Z,4.05
2022-11-05T16:43:23.917Z,2.47
2022-11-05T16:45:58.620Z,3.75
2022-11-05T16:48:28.494Z,2.88
2022-11-05T16:50:57.306Z,3.53
2022-11-05T16:53:25.761Z,3.22
2022-11-05T16:55:54.285Z,2.97
2022-11-05T16:58:25.566Z,3.85
2022-11-05T17:01:02.018Z,2.72
2022-11-05T17:03:30.657Z,3.08
2022-11-05T17:05:59.173Z,3.28
2022-11-05T17:08:27.672Z,4.03
2022-11-05T17:10:56.236Z,3.33
2022-11-05T17:13:24.438Z,3.80
2022-11-05T17:15:53.317Z,3.92
2022-11-05T17:18:23.007Z,4.78
2022-11-05T17:20:53.653Z,3.88
2022-11-05T17:23:23.462Z,4.82
2022-11-05T17:25:54.903Z,4.40
2022-11-05T17:28:23.904Z,4.97
2022-11-05T17:30:53.338Z,5.55
2022-11-05T17:33:23.967Z,5.05
2022-11-05T17:35:53.255Z,5.35
2022-11-05T17:38:22.653Z,4.97
2022-11-05T17:40:51.958Z,4.90
2022-11-05T17:43:21.255Z,5.03
2022-11-05T17:45:52.888Z,5.22
2022-11-05T17:48:22.849Z,4.95
2022-11-05T17:50:52.384Z,4.72
2022-11-05T17:53:21.254Z,5.22
2022-11-05T17:55:49.901Z,4.97
2022-11-05T17:58:18.492Z,5.18
2022-11-05T18:00:47.987Z,5.75
2022-11-05T18:03:16.408Z,5.60
2022-11-05T18:05:46.486Z,5.00
2022-11-05T18:08:14.991Z,5.35
2022-11-05T18:10:44.058Z,6.10
2022-11-05T18:13:13.077Z,5.78
2022-11-05T18:15:42.083Z,5.57
2022-11-05T18:18:10.847Z,5.22
2022-11-05T18:20:39.829Z,5.68
2022-11-05T18:23:10.127Z,5.60
2022-11-05T18:25:41.333Z,5.88
2022-11-05T18:28:10.209Z,6.25
2022-11-05T18:30:40.187Z,5.70
2022-11-05T18:33:08.516Z,6.60
2022-11-05T18:35:42.189Z,5.50
2022-11-05T18:38:12.225Z,5.97
2022-11-05T18:40:40.985Z,5.85
2022-11-05T18:43:09.733Z,6.20
2022-11-05T18:45:38.472Z,6.72
2022-11-05T18:48:07.283Z,6.32
2022-11-05T18:50:35.821Z,6.45
2022-11-05T18:53:04.093Z,7.30
2022-11-05T18:55:34.108Z,8.95
2022-11-05T18:58:05.467Z,7.63
2022-11-05T19:00:34.358Z,9.45
2022-11-05T19:03:02.863Z,16.13
2022-11-05T19:05:31.621Z,17.90
2022-11-05T19:08:00.268Z,19.25
2022-11-05T19:10:29.658Z,17.63
2022-11-05T19:12:59.248Z,18.83
2022-11-05T19:15:27.821Z,18.42
2022-11-05T19:17:56.303Z,16.73
2022-11-05T19:20:25.115Z,19.65
2022-11-05T19:22:53.552Z,21.48
2022-11-05T19:25:22.179Z,23.98
2022-11-05T19:27:50.487Z,23.67
2022-11-05T19:30:20.641Z,23.95
2022-11-05T19:32:48.908Z,24.17
2022-11-05T19:35:17.670Z,26.55
2022-11-05T19:37:45.926Z,24.38
2022-11-05T19:40:14.736Z,24.98
2022-11-05T19:42:42.946Z,23.83
2022-11-05T19:45:38.404Z,22.75
2022-11-05T19:48:02.349Z,21.40
2022-11-05T19:50:31.192Z,23.23
2022-11-05T19:52:59.754Z,21.17
2022-11-05T19:55:28.709Z,23.67
2022-11-05T19:57:57.031Z,19.73
2022-11-05T20:00:25.733Z,19.70
2022-11-05T20:02:54.278Z,20.48
2022-11-05T20:05:24.178Z,19.42
2022-11-05T20:07:53.338Z,17.73
2022-11-05T20:10:22.706Z,20.42
2022-11-05T20:12:51.339Z,17.20
2022-11-05T20:15:20.270Z,15.43
2022-11-05T20:17:52.774Z,15.77
2022-11-05T20:20:23.745Z,15.82
2022-11-05T20:22:53.469Z,15.63
2022-11-05T20:25:22.095Z,15.82
2022-11-05T20:27:50.558Z,15.70
2022-11-05T20:30:19.890Z,16.65
2022-11-05T20:32:48.216Z,14.43
2022-11-05T20:35:17.085Z,14.32
2022-11-05T20:37:53.634Z,13.05
2022-11-05T20:40:22.767Z,12.63
2022-11-05T20:42:51.106Z,10.83
2022-11-05T20:45:19.853Z,12.90
2022-11-05T20:47:48.166Z,12.75
2022-11-05T20:50:16.785Z,11.80
2022-11-05T20:52:44.995Z,11.55
2022-11-05T20:55:14.962Z,11.93
2022-11-05T20:57:43.143Z,11.93
2022-11-05T21:00:13.544Z,10.77
2022-11-05T21:02:42.192Z,11.10
2022-11-05T21:05:10.979Z,8.95
2022-11-05T21:07:39.219Z,9.48
2022-11-05T21:10:08.338Z,8.10
2022-11-05T21:12:38.101Z,8.57
2022-11-05T21:15:08.584Z,9.70
2022-11-05T21:17:37.555Z,8.73
2022-11-05T21:20:07.122Z,7.55
2022-11-05T21:22:35.478Z,6.88
2022-11-05T21:25:04.122Z,7.38
2022-11-05T21:27:32.331Z,8.20
2022-11-05T21:30:02.359Z,7.00
2022-11-05T21:32:30.542Z,7.25
2022-11-05T21:34:59.206Z,6.63
2022-11-05T21:37:27.575Z,6.43
2022-11-05T21:39:56.113Z,5.95
2022-11-05T21:42:24.551Z,6.20
2022-11-05T21:44:57.730Z,5.90
2022-11-05T21:47:30.499Z,6.00
2022-11-05T21:49:59.065Z,6.55
2022-11-05T21:52:44.655Z,6.38
2022-11-05T21:55:33.398Z,4.45
2022-11-05T21:58:25.015Z,5.82
2022-11-05T22:00:53.618Z,5.38
2022-11-05T22:03:23.389Z,5.53
2022-11-05T22:05:52.252Z,5.70
2022-11-05T22:08:20.597Z,6.45
2022-11-05T22:10:49.123Z,5.05
2022-11-05T22:13:18.290Z,5.53
2022-11-05T22:15:55.894Z,6.22
2022-11-05T22:18:25.627Z,6.20
2022-11-05T22:20:54.577Z,5.97
2022-11-05T22:23:23.016Z,5.18
2022-11-05T22:25:51.844Z,5.07
2022-11-05T22:28:20.138Z,4.93
2022-11-05T22:30:48.807Z,5.57
2022-11-05T22:33:17.180Z,5.47
2022-11-05T22:35:47.246Z,4.28
2022-11-05T22:38:15.641Z,5.43
2022-11-05T22:40:44.368Z,5.80
2022-11-05T22:43:12.660Z,5.47
2022-11-05T22:45:41.272Z,6.35
2022-11-05T22:48:10.385Z,4.65
2022-11-05T22:50:39.369Z,5.70
2022-11-05T22:53:09.083Z,5.93
2022-11-05T22:55:40.298Z,6.75
2022-11-05T22:58:08.555Z,5.72
2022-11-05T23:00:38.522Z,6.40
2022-11-05T23:03:06.933Z,5.95
2022-11-05T23:05:35.604Z,6.00
2022-11-05T23:08:21.483Z,6.15
2022-11-05T23:11:23.307Z,6.05
2022-11-05T23:13:51.524Z,6.03
2022-11-05T23:16:37.274Z,6.60
2022-11-05T23:19:23.183Z,6.25
2022-11-05T23:22:09.494Z,6.28
2022-11-05T23:24:37.765Z,7.07
2022-11-05T23:27:08.010Z,6.63
2022-11-05T23:29:36.755Z,7.38
2022-11-05T23:32:23.148Z,6.53
2022-11-05T23:34:51.746Z,6.40
2022-11-05T23:37:38.541Z,7.55
2022-11-05T23:40:09.355Z,6.55
2022-11-05T23:42:57.412Z,5.57
2022-11-05T23:45:43.087Z,6.05
2022-11-05T23:48:20.005Z,5.30
2022-11-05T23:50:52.799Z,6.75
2022-11-05T23:53:21.742Z,6.90
2022-11-05T23:55:50.339Z,6.28
2022-11-05T23:58:20.391Z,6.53
